sensor_id;sensor_type;location;lat;lon;timestamp;pressure;altitude;pressure_sealevel;temperature;humidity
62025;BME280;47978;49.118;12.146;2023-03-20T00:03:12;97614.13;;;6.47;91.73
62025;BME280;47978;49.118;12.146;2023-03-20T00:07:15;97612.97;;;6.74;91.85
62025;BME280;47978;49.118;12.146;2023-03-20T00:11:23;97612.72;;;6.60;92.00
62025;BME280;47978;49.118;12.146;2023-03-20T00:15:28;97625.38;;;6.51;92.12
62025;BME280;47978;49.118;12.146;2023-03-20T00:19:29;97629.22;;;6.60;91.73
62025;BME280;47978;49.118;12.146;2023-03-20T00:23:32;97634.22;;;6.38;92.15
62025;BME280;47978;49.118;12.146;2023-03-20T00:27:33;97621.03;;;6.24;92.17
62025;BME280;47978;49.118;12.146;2023-03-20T00:31:36;97626.78;;;6.28;91.30
62025;BME280;47978;49.118;12.146;2023-03-20T00:35:37;97625.41;;;6.25;91.65
62025;BME280;47978;49.118;12.146;2023-03-20T00:39:40;97625.97;;;6.22;91.22
62025;BME280;47978;49.118;12.146;2023-03-20T00:43:42;97619.09;;;6.15;91.10
62025;BME280;47978;49.118;12.146;2023-03-20T00:47:43;97628.16;;;6.05;91.54
62025;BME280;47978;49.118;12.146;2023-03-20T00:51:45;97633.91;;;6.08;92.02
62025;BME280;47978;49.118;12.146;2023-03-20T00:55:48;97633.09;;;5.98;93.52
62025;BME280;47978;49.118;12.146;2023-03-20T00:59:50;97627.88;;;6.01;93.15
62025;BME280;47978;49.118;12.146;2023-03-20T01:03:53;97621.56;;;6.01;93.02
62025;BME280;47978;49.118;12.146;2023-03-20T01:07:54;97629.53;;;6.02;92.78
62025;BME280;47978;49.118;12.146;2023-03-20T01:11:58;97627.06;;;6.01;93.22
62025;BME280;47978;49.118;12.146;2023-03-20T01:16:00;97628.13;;;5.95;93.27
62025;BME280;47978;49.118;12.146;2023-03-20T01:20:01;97628.13;;;5.95;93.44
62025;BME280;47978;49.118;12.146;2023-03-20T01:24:02;97624.00;;;5.92;92.57
62025;BME280;47978;49.118;12.146;2023-03-20T01:28:12;97622.88;;;5.88;92.61
62025;BME280;47978;49.118;12.146;2023-03-20T01:32:14;97623.44;;;5.85;93.18
62025;BME280;47978;49.118;12.146;2023-03-20T01:36:16;97618.47;;;5.72;93.34
62025;BME280;47978;49.118;12.146;2023-03-20T01:40:26;97634.13;;;5.76;92.93
62025;BME280;47978;49.118;12.146;2023-03-20T01:44:31;97637.69;;;5.67;92.79
62025;BME280;47978;49.118;12.146;2023-03-20T01:48:53;97631.34;;;5.66;92.59
62025;BME280;47978;49.118;12.146;2023-03-20T01:57:15;97632.19;;;5.61;92.03
62025;BME280;47978;49.118;12.146;2023-03-20T02:01:19;97635.41;;;5.43;92.65
62025;BME280;47978;49.118;12.146;2023-03-20T02:05:21;97627.19;;;5.43;92.12
62025;BME280;47978;49.118;12.146;2023-03-20T02:09:23;97635.97;;;5.45;91.69
62025;BME280;47978;49.118;12.146;2023-03-20T02:13:24;97622.81;;;5.47;91.95
62025;BME280;47978;49.118;12.146;2023-03-20T02:17:27;97630.22;;;5.47;91.93
62025;BME280;47978;49.118;12.146;2023-03-20T02:21:41;97626.31;;;5.27;92.29
62025;BME280;47978;49.118;12.146;2023-03-20T02:30:31;97623.00;;;5.25;93.20
62025;BME280;47978;49.118;12.146;2023-03-20T02:34:50;97625.78;;;5.30;93.23
62025;BME280;47978;49.118;12.146;2023-03-20T02:38:59;97627.09;;;5.17;93.75
62025;BME280;47978;49.118;12.146;2023-03-20T02:43:06;97644.88;;;5.10;94.07
62025;BME280;47978;49.118;12.146;2023-03-20T02:47:12;97640.00;;;5.22;93.55
62025;BME280;47978;49.118;12.146;2023-03-20T02:51:16;97646.81;;;5.14;93.55
62025;BME280;47978;49.118;12.146;2023-03-20T02:55:23;97644.25;;;4.97;93.20
62025;BME280;47978;49.118;12.146;2023-03-20T02:59:29;97646.69;;;4.89;93.11
62025;BME280;47978;49.118;12.146;2023-03-20T03:03:34;97643.41;;;4.92;92.19
62025;BME280;47978;49.118;12.146;2023-03-20T03:07:37;97659.28;;;4.85;92.25
62025;BME280;47978;49.118;12.146;2023-03-20T03:11:43;97666.34;;;4.81;91.06
62025;BME280;47978;49.118;12.146;2023-03-20T03:15:45;97660.78;;;4.65;92.04
62025;BME280;47978;49.118;12.146;2023-03-20T03:19:49;97655.09;;;4.77;91.07
62025;BME280;47978;49.118;12.146;2023-03-20T03:23:51;97647.44;;;4.74;90.59
62025;BME280;47978;49.118;12.146;2023-03-20T03:27:56;97649.91;;;4.76;90.58
62025;BME280;47978;49.118;12.146;2023-03-20T03:31:59;97657.09;;;4.49;91.82
62025;BME280;47978;49.118;12.146;2023-03-20T03:36:04;97662.75;;;4.33;93.48
62025;BME280;47978;49.118;12.146;2023-03-20T03:40:12;97655.56;;;4.21;93.75
62025;BME280;47978;49.118;12.146;2023-03-20T03:44:19;97650.19;;;4.37;93.05
62025;BME280;47978;49.118;12.146;2023-03-20T03:48:24;97660.16;;;4.21;93.72
62025;BME280;47978;49.118;12.146;2023-03-20T03:52:27;97666.97;;;4.13;94.11
62025;BME280;47978;49.118;12.146;2023-03-20T03:56:31;97669.00;;;4.28;94.38
62025;BME280;47978;49.118;12.146;2023-03-20T04:00:35;97676.63;;;4.26;94.68
62025;BME280;47978;49.118;12.146;2023-03-20T04:04:38;97683.00;;;4.32;94.98
62025;BME280;47978;49.118;12.146;2023-03-20T04:08:42;97680.38;;;4.47;94.04
62025;BME280;47978;49.118;12.146;2023-03-20T04:12:44;97681.50;;;4.51;94.21
62025;BME280;47978;49.118;12.146;2023-03-20T04:16:47;97686.41;;;4.49;93.70
62025;BME280;47978;49.118;12.146;2023-03-20T04:20:48;97681.50;;;4.51;93.62
62025;BME280;47978;49.118;12.146;2023-03-20T04:24:50;97680.94;;;4.49;93.16
62025;BME280;47978;49.118;12.146;2023-03-20T04:28:51;97688.63;;;4.52;94.54
62025;BME280;47978;49.118;12.146;2023-03-20T04:32:54;97687.06;;;4.61;94.58
62025;BME280;47978;49.118;12.146;2023-03-20T04:36:55;97689.00;;;4.66;94.96
62025;BME280;47978;49.118;12.146;2023-03-20T04:40:57;97688.22;;;4.70;95.61
62025;BME280;47978;49.118;12.146;2023-03-20T04:44:58;97684.34;;;4.61;96.28
62025;BME280;47978;49.118;12.146;2023-03-20T04:49:01;97691.53;;;4.72;96.56
62025;BME280;47978;49.118;12.146;2023-03-20T04:53:02;97698.69;;;4.84;96.27
62025;BME280;47978;49.118;12.146;2023-03-20T04:57:04;97698.44;;;4.85;96.50
62025;BME280;47978;49.118;12.146;2023-03-20T05:01:05;97702.66;;;4.98;95.97
62025;BME280;47978;49.118;12.146;2023-03-20T05:05:08;97703.22;;;5.05;96.18
62025;BME280;47978;49.118;12.146;2023-03-20T05:09:10;97694.75;;;5.07;95.75
62025;BME280;47978;49.118;12.146;2023-03-20T05:13:11;97693.38;;;5.09;95.66
62025;BME280;47978;49.118;12.146;2023-03-20T05:17:12;97692.88;;;5.17;95.46
62025;BME280;47978;49.118;12.146;2023-03-20T05:21:15;97690.38;;;5.11;96.07
62025;BME280;47978;49.118;12.146;2023-03-20T05:25:16;97697.81;;;5.15;96.33
62025;BME280;47978;49.118;12.146;2023-03-20T05:29:18;97698.63;;;5.16;97.26
62025;BME280;47978;49.118;12.146;2023-03-20T05:33:19;97699.78;;;5.25;96.50
62025;BME280;47978;49.118;12.146;2023-03-20T05:37:22;97715.22;;;5.41;96.33
62025;BME280;47978;49.118;12.146;2023-03-20T05:41:23;97726.53;;;5.60;94.70
62025;BME280;47978;49.118;12.146;2023-03-20T05:45:25;97744.34;;;5.53;93.83
62025;BME280;47978;49.118;12.146;2023-03-20T05:49:26;97733.34;;;5.48;94.35
62025;BME280;47978;49.118;12.146;2023-03-20T05:53:29;97729.50;;;5.49;94.13
62025;BME280;47978;49.118;12.146;2023-03-20T05:57:30;97723.19;;;5.48;94.19
62025;BME280;47978;49.118;12.146;2023-03-20T06:01:32;97730.09;;;5.61;93.90
62025;BME280;47978;49.118;12.146;2023-03-20T06:05:33;97723.84;;;5.76;94.04
62025;BME280;47978;49.118;12.146;2023-03-20T06:09:36;97739.22;;;5.82;94.23
62025;BME280;47978;49.118;12.146;2023-03-20T06:13:38;97740.59;;;5.79;94.57
62025;BME280;47978;49.118;12.146;2023-03-20T06:17:39;97743.06;;;5.86;94.70
62025;BME280;47978;49.118;12.146;2023-03-20T06:21:41;97756.88;;;5.96;94.64
62025;BME280;47978;49.118;12.146;2023-03-20T06:25:43;97750.59;;;6.11;93.78
62025;BME280;47978;49.118;12.146;2023-03-20T06:29:45;97754.19;;;6.22;93.81
62025;BME280;47978;49.118;12.146;2023-03-20T06:33:46;97754.50;;;6.36;93.39
62025;BME280;47978;49.118;12.146;2023-03-20T06:37:48;97756.16;;;6.47;92.99
62025;BME280;47978;49.118;12.146;2023-03-20T06:41:50;97752.88;;;6.50;93.34
62025;BME280;47978;49.118;12.146;2023-03-20T06:45:52;97754.78;;;6.60;93.37
62025;BME280;47978;49.118;12.146;2023-03-20T06:49:53;97755.34;;;6.72;93.60
62025;BME280;47978;49.118;12.146;2023-03-20T06:53:55;97759.72;;;6.93;93.94
62025;BME280;47978;49.118;12.146;2023-03-20T06:57:57;97750.94;;;7.07;93.51
62025;BME280;47978;49.118;12.146;2023-03-20T07:01:59;97752.00;;;7.26;93.49
62025;BME280;47978;49.118;12.146;2023-03-20T07:06:00;97755.47;;;7.62;91.79
62025;BME280;47978;49.118;12.146;2023-03-20T07:10:02;97755.69;;;7.71;91.36
62025;BME280;47978;49.118;12.146;2023-03-20T07:14:04;97767.50;;;7.87;91.03
62025;BME280;47978;49.118;12.146;2023-03-20T07:18:06;97768.69;;;8.25;90.12
62025;BME280;47978;49.118;12.146;2023-03-20T07:22:07;97774.59;;;8.53;89.93
62025;BME280;47978;49.118;12.146;2023-03-20T07:26:12;97782.22;;;8.66;88.84
62025;BME280;47978;49.118;12.146;2023-03-20T07:30:15;97785.13;;;8.85;86.88
62025;BME280;47978;49.118;12.146;2023-03-20T07:34:16;97796.38;;;8.94;85.50
62025;BME280;47978;49.118;12.146;2023-03-20T07:38:18;97798.47;;;9.02;84.68
62025;BME280;47978;49.118;12.146;2023-03-20T07:42:19;97793.13;;;9.16;83.54
62025;BME280;47978;49.118;12.146;2023-03-20T07:46:22;97792.59;;;9.43;83.37
62025;BME280;47978;49.118;12.146;2023-03-20T07:50:23;97795.56;;;9.76;82.43
62025;BME280;47978;49.118;12.146;2023-03-20T07:54:25;97795.81;;;10.03;82.14
62025;BME280;47978;49.118;12.146;2023-03-20T07:58:26;97801.94;;;10.43;81.95
62025;BME280;47978;49.118;12.146;2023-03-20T08:02:29;97802.19;;;10.66;80.46
62025;BME280;47978;49.118;12.146;2023-03-20T08:06:31;97799.34;;;10.71;81.27
62025;BME280;47978;49.118;12.146;2023-03-20T08:10:32;97799.31;;;10.90;80.72
62025;BME280;47978;49.118;12.146;2023-03-20T08:14:33;97793.84;;;11.03;80.54
62025;BME280;47978;49.118;12.146;2023-03-20T08:18:36;97785.38;;;11.14;80.98
62025;BME280;47978;49.118;12.146;2023-03-20T08:22:38;97789.56;;;11.58;79.30
62025;BME280;47978;49.118;12.146;2023-03-20T08:26:39;97782.97;;;11.86;76.33
62025;BME280;47978;49.118;12.146;2023-03-20T08:30:40;97774.88;;;11.90;75.23
62025;BME280;47978;49.118;12.146;2023-03-20T08:34:43;97784.69;;;12.24;75.25
62025;BME280;47978;49.118;12.146;2023-03-20T08:38:45;97785.91;;;12.45;72.91
62025;BME280;47978;49.118;12.146;2023-03-20T08:42:46;97780.22;;;12.64;71.81
62025;BME280;47978;49.118;12.146;2023-03-20T08:46:48;97787.91;;;12.67;72.14
62025;BME280;47978;49.118;12.146;2023-03-20T08:50:50;97795.56;;;12.48;72.57
62025;BME280;47978;49.118;12.146;2023-03-20T08:54:52;97789.25;;;12.70;72.39
62025;BME280;47978;49.118;12.146;2023-03-20T08:58:53;97786.03;;;12.76;72.20
62025;BME280;47978;49.118;12.146;2023-03-20T09:02:56;97783.47;;;13.02;71.02
62025;BME280;47978;49.118;12.146;2023-03-20T09:06:58;97795.31;;;13.17;71.19
62025;BME280;47978;49.118;12.146;2023-03-20T09:11:00;97792.81;;;13.07;71.20
62025;BME280;47978;49.118;12.146;2023-03-20T09:15:01;97795.66;;;12.93;71.52
62025;BME280;47978;49.118;12.146;2023-03-20T09:19:03;97789.53;;;12.68;72.28
62025;BME280;47978;49.118;12.146;2023-03-20T09:23:06;97795.53;;;12.98;71.51
62025;BME280;47978;49.118;12.146;2023-03-20T09:27:08;97790.81;;;13.21;71.49
62025;BME280;47978;49.118;12.146;2023-03-20T09:31:09;97791.75;;;13.39;71.79
62025;BME280;47978;49.118;12.146;2023-03-20T09:35:10;97791.56;;;13.58;68.34
62025;BME280;47978;49.118;12.146;2023-03-20T09:39:13;97795.88;;;13.72;69.08
62025;BME280;47978;49.118;12.146;2023-03-20T09:43:16;97791.41;;;13.63;69.06
62025;BME280;47978;49.118;12.146;2023-03-20T09:47:21;97800.72;;;13.58;69.07
62025;BME280;47978;49.118;12.146;2023-03-20T09:51:27;97788.69;;;13.80;68.67
62025;BME280;47978;49.118;12.146;2023-03-20T09:55:34;97787.59;;;13.81;67.62
62025;BME280;47978;49.118;12.146;2023-03-20T09:59:36;97794.50;;;13.92;68.23
62025;BME280;47978;49.118;12.146;2023-03-20T10:03:41;97795.88;;;14.12;66.98
62025;BME280;47978;49.118;12.146;2023-03-20T10:07:43;97796.22;;;14.20;66.55
62025;BME280;47978;49.118;12.146;2023-03-20T10:11:53;97800.25;;;14.05;67.02
62025;BME280;47978;49.118;12.146;2023-03-20T10:15:59;97798.56;;;13.55;68.57
62025;BME280;47978;49.118;12.146;2023-03-20T10:20:09;97790.94;;;13.38;69.26
62025;BME280;47978;49.118;12.146;2023-03-20T10:24:12;97788.66;;;13.71;68.08
62025;BME280;47978;49.118;12.146;2023-03-20T10:28:18;97791.44;;;13.71;67.50
62025;BME280;47978;49.118;12.146;2023-03-20T10:32:23;97789.44;;;13.94;66.51
62025;BME280;47978;49.118;12.146;2023-03-20T10:36:31;97778.69;;;14.10;65.92
62025;BME280;47978;49.118;12.146;2023-03-20T10:40:35;97779.16;;;14.04;65.72
62025;BME280;47978;49.118;12.146;2023-03-20T10:44:40;97773.13;;;14.10;65.99
62025;BME280;47978;49.118;12.146;2023-03-20T10:48:43;97771.44;;;13.92;65.78
62025;BME280;47978;49.118;12.146;2023-03-20T10:52:46;97775.84;;;13.93;66.59
62025;BME280;47978;49.118;12.146;2023-03-20T10:56:49;97773.06;;;13.93;65.35
62025;BME280;47978;49.118;12.146;2023-03-20T11:00:55;97779.22;;;14.21;65.20
62025;BME280;47978;49.118;12.146;2023-03-20T11:04:57;97767.03;;;14.57;63.15
62025;BME280;47978;49.118;12.146;2023-03-20T11:09:08;97768.03;;;14.70;61.90
62025;BME280;47978;49.118;12.146;2023-03-20T11:13:14;97768.03;;;14.70;62.04
62025;BME280;47978;49.118;12.146;2023-03-20T11:17:17;97762.97;;;14.63;62.09
62025;BME280;47978;49.118;12.146;2023-03-20T11:21:19;97764.28;;;14.92;60.90
62025;BME280;47978;49.118;12.146;2023-03-20T11:25:23;97757.38;;;15.15;60.15
62025;BME280;47978;49.118;12.146;2023-03-20T11:29:25;97757.41;;;14.80;60.92
62025;BME280;47978;49.118;12.146;2023-03-20T11:33:30;97753.63;;;14.76;61.32
62025;BME280;47978;49.118;12.146;2023-03-20T11:37:32;97749.38;;;14.88;60.13
62025;BME280;47978;49.118;12.146;2023-03-20T11:41:34;97744.78;;;14.66;60.29
62025;BME280;47978;49.118;12.146;2023-03-20T11:45:41;97740.34;;;14.99;60.46
62025;BME280;47978;49.118;12.146;2023-03-20T11:49:46;97735.72;;;15.29;58.55
62025;BME280;47978;49.118;12.146;2023-03-20T11:53:56;97729.47;;;15.41;58.21
62025;BME280;47978;49.118;12.146;2023-03-20T11:57:58;97734.50;;;15.74;57.70
62025;BME280;47978;49.118;12.146;2023-03-20T12:02:00;97724.16;;;15.66;57.35
62025;BME280;47978;49.118;12.146;2023-03-20T12:06:06;97726.47;;;15.55;57.58
62025;BME280;47978;49.118;12.146;2023-03-20T12:10:09;97728.72;;;15.15;57.83
62025;BME280;47978;49.118;12.146;2023-03-20T12:14:14;97733.97;;;15.07;59.42
62025;BME280;47978;49.118;12.146;2023-03-20T12:18:20;97725.13;;;14.62;59.07
62025;BME280;47978;49.118;12.146;2023-03-20T12:22:27;97725.75;;;14.50;60.93
62025;BME280;47978;49.118;12.146;2023-03-20T12:26:32;97727.69;;;14.24;61.84
62025;BME280;47978;49.118;12.146;2023-03-20T12:30:39;97718.00;;;14.04;62.57
62025;BME280;47978;49.118;12.146;2023-03-20T12:34:43;97717.19;;;14.03;64.26
62025;BME280;47978;49.118;12.146;2023-03-20T12:38:49;97711.19;;;14.45;62.03
62025;BME280;47978;49.118;12.146;2023-03-20T12:42:54;97711.56;;;14.69;61.46
62025;BME280;47978;49.118;12.146;2023-03-20T12:47:00;97711.56;;;14.78;59.91
62025;BME280;47978;49.118;12.146;2023-03-20T12:51:09;97715.00;;;14.66;60.02
62025;BME280;47978;49.118;12.146;2023-03-20T12:55:21;97716.22;;;14.16;63.64
62025;BME280;47978;49.118;12.146;2023-03-20T12:59:26;97709.94;;;13.93;66.85
62025;BME280;47978;49.118;12.146;2023-03-20T13:03:35;97708.56;;;13.73;66.99
62025;BME280;47978;49.118;12.146;2023-03-20T13:07:42;97705.19;;;13.85;66.14
62025;BME280;47978;49.118;12.146;2023-03-20T13:11:50;97705.69;;;13.96;66.47
62025;BME280;47978;49.118;12.146;2023-03-20T13:15:57;97706.03;;;13.94;64.55
62025;BME280;47978;49.118;12.146;2023-03-20T13:20:08;97692.34;;;14.15;63.80
62025;BME280;47978;49.118;12.146;2023-03-20T13:24:20;97687.28;;;14.35;63.56
62025;BME280;47978;49.118;12.146;2023-03-20T13:28:26;97690.44;;;14.59;63.26
62025;BME280;47978;49.118;12.146;2023-03-20T13:32:33;97688.97;;;14.53;61.70
62025;BME280;47978;49.118;12.146;2023-03-20T13:36:40;97681.75;;;14.87;61.28
62025;BME280;47978;49.118;12.146;2023-03-20T13:40:46;97668.94;;;15.03;63.03
62025;BME280;47978;49.118;12.146;2023-03-20T13:44:49;97669.78;;;14.95;60.83
62025;BME280;47978;49.118;12.146;2023-03-20T13:48:51;97671.09;;;14.89;56.70
62025;BME280;47978;49.118;12.146;2023-03-20T13:52:55;97678.00;;;14.74;56.11
62025;BME280;47978;49.118;12.146;2023-03-20T13:57:01;97676.34;;;14.65;57.07
62025;BME280;47978;49.118;12.146;2023-03-20T14:01:08;97677.94;;;14.39;56.73
62025;BME280;47978;49.118;12.146;2023-03-20T14:05:13;97677.94;;;14.22;56.78
62025;BME280;47978;49.118;12.146;2023-03-20T14:09:32;97679.22;;;14.07;58.08
62025;BME280;47978;49.118;12.146;2023-03-20T14:13:33;97680.38;;;13.98;58.05
62025;BME280;47978;49.118;12.146;2023-03-20T14:17:37;97671.19;;;13.97;58.29
62025;BME280;47978;49.118;12.146;2023-03-20T14:21:44;97681.81;;;13.86;58.71
62025;BME280;47978;49.118;12.146;2023-03-20T14:25:46;97671.66;;;13.82;59.36
62025;BME280;47978;49.118;12.146;2023-03-20T14:29:48;97674.44;;;13.82;59.19
62025;BME280;47978;49.118;12.146;2023-03-20T14:33:57;97673.75;;;13.76;59.45
62025;BME280;47978;49.118;12.146;2023-03-20T14:38:07;97670.81;;;13.72;59.91
62025;BME280;47978;49.118;12.146;2023-03-20T14:42:20;97673.59;;;13.72;59.97
62025;BME280;47978;49.118;12.146;2023-03-20T14:46:26;97670.47;;;13.74;60.16
62025;BME280;47978;49.118;12.146;2023-03-20T14:50:34;97665.56;;;13.71;60.30
62025;BME280;47978;49.118;12.146;2023-03-20T14:54:38;97667.22;;;13.72;60.40
62025;BME280;47978;49.118;12.146;2023-03-20T14:58:50;97668.38;;;13.80;60.26
62025;BME280;47978;49.118;12.146;2023-03-20T15:02:52;97654.44;;;13.71;61.03
62025;BME280;47978;49.118;12.146;2023-03-20T15:06:57;97654.13;;;13.64;60.65
62025;BME280;47978;49.118;12.146;2023-03-20T15:10:59;97649.00;;;13.57;61.11
62025;BME280;47978;49.118;12.146;2023-03-20T15:15:05;97653.72;;;13.48;60.71
62025;BME280;47978;49.118;12.146;2023-03-20T15:19:08;97643.41;;;13.40;61.03
62025;BME280;47978;49.118;12.146;2023-03-20T15:23:16;97651.25;;;13.38;60.95
62025;BME280;47978;49.118;12.146;2023-03-20T15:27:17;97648.59;;;13.33;61.78
62025;BME280;47978;49.118;12.146;2023-03-20T15:31:20;97645.56;;;13.20;62.14
62025;BME280;47978;49.118;12.146;2023-03-20T15:35:24;97642.94;;;13.15;62.47
62025;BME280;47978;49.118;12.146;2023-03-20T15:39:29;97642.31;;;13.18;62.59
62025;BME280;47978;49.118;12.146;2023-03-20T15:43:36;97643.13;;;13.19;62.96
62025;BME280;47978;49.118;12.146;2023-03-20T15:47:38;97642.94;;;13.15;62.57
62025;BME280;47978;49.118;12.146;2023-03-20T15:51:42;97643.25;;;13.14;63.38
62025;BME280;47978;49.118;12.146;2023-03-20T15:55:47;97643.25;;;13.14;63.34
62025;BME280;47978;49.118;12.146;2023-03-20T15:59:50;97644.72;;;13.11;63.55
62025;BME280;47978;49.118;12.146;2023-03-20T16:03:51;97640.22;;;12.93;63.99
62025;BME280;47978;49.118;12.146;2023-03-20T16:07:57;97640.97;;;12.85;63.86
62025;BME280;47978;49.118;12.146;2023-03-20T16:12:14;97641.56;;;12.73;64.51
62025;BME280;47978;49.118;12.146;2023-03-20T16:16:17;97639.41;;;12.70;64.97
62025;BME280;47978;49.118;12.146;2023-03-20T16:20:19;97641.94;;;12.57;65.27
62025;BME280;47978;49.118;12.146;2023-03-20T16:24:24;97641.75;;;12.54;65.84
62025;BME280;47978;49.118;12.146;2023-03-20T16:28:28;97642.91;;;12.53;66.00
62025;BME280;47978;49.118;12.146;2023-03-20T16:32:32;97650.63;;;12.42;66.33
62025;BME280;47978;49.118;12.146;2023-03-20T16:36:36;97640.34;;;12.43;66.77
62025;BME280;47978;49.118;12.146;2023-03-20T16:40:37;97640.47;;;12.37;66.47
62025;BME280;47978;49.118;12.146;2023-03-20T16:44:40;97644.25;;;12.19;67.17
62025;BME280;47978;49.118;12.146;2023-03-20T16:48:42;97642.63;;;12.18;67.55
62025;BME280;47978;49.118;12.146;2023-03-20T16:52:44;97648.16;;;12.18;67.79
62025;BME280;47978;49.118;12.146;2023-03-20T16:56:50;97646.75;;;12.07;68.39
62025;BME280;47978;49.118;12.146;2023-03-20T17:00:56;97654.03;;;12.03;69.73
62025;BME280;47978;49.118;12.146;2023-03-20T17:05:00;97650.88;;;11.96;71.69
62025;BME280;47978;49.118;12.146;2023-03-20T17:13:18;97659.41;;;11.71;73.03
62025;BME280;47978;49.118;12.146;2023-03-20T17:17:21;97668.94;;;11.52;74.25
62025;BME280;47978;49.118;12.146;2023-03-20T17:21:22;97669.75;;;11.52;74.47
62025;BME280;47978;49.118;12.146;2023-03-20T17:25:24;97673.06;;;11.40;74.96
62025;BME280;47978;49.118;12.146;2023-03-20T17:29:25;97664.44;;;11.42;74.92
62025;BME280;47978;49.118;12.146;2023-03-20T17:33:28;97672.13;;;11.31;75.44
62025;BME280;47978;49.118;12.146;2023-03-20T17:37:30;97673.03;;;11.26;76.40
62025;BME280;47978;49.118;12.146;2023-03-20T17:41:31;97678.97;;;11.06;76.96
62025;BME280;47978;49.118;12.146;2023-03-20T17:45:32;97676.88;;;10.98;77.21
62025;BME280;47978;49.118;12.146;2023-03-20T17:49:35;97678.94;;;10.92;77.73
62025;BME280;47978;49.118;12.146;2023-03-20T17:53:37;97685.06;;;10.89;78.17
62025;BME280;47978;49.118;12.146;2023-03-20T17:57:38;97677.84;;;10.74;78.68
62025;BME280;47978;49.118;12.146;2023-03-20T18:01:40;97677.88;;;10.55;79.04
62025;BME280;47978;49.118;12.146;2023-03-20T18:05:43;97691.69;;;10.42;79.28
62025;BME280;47978;49.118;12.146;2023-03-20T18:09:45;97694.53;;;10.37;80.08
62025;BME280;47978;49.118;12.146;2023-03-20T18:13:47;97703.41;;;10.33;80.34
62025;BME280;47978;49.118;12.146;2023-03-20T18:17:48;97704.94;;;10.21;80.26
62025;BME280;47978;49.118;12.146;2023-03-20T18:21:51;97701.25;;;10.30;80.37
62025;BME280;47978;49.118;12.146;2023-03-20T18:25:53;97702.03;;;10.12;80.70
62025;BME280;47978;49.118;12.146;2023-03-20T18:29:54;97699.63;;;10.05;81.07
62025;BME280;47978;49.118;12.146;2023-03-20T18:33:55;97703.78;;;9.84;81.66
62025;BME280;47978;49.118;12.146;2023-03-20T18:37:58;97708.84;;;9.77;81.98
62025;BME280;47978;49.118;12.146;2023-03-20T18:42:00;97710.38;;;9.64;82.61
62025;BME280;47978;49.118;12.146;2023-03-20T18:46:01;97704.41;;;9.57;82.94
62025;BME280;47978;49.118;12.146;2023-03-20T18:50:03;97708.25;;;9.56;82.71
62025;BME280;47978;49.118;12.146;2023-03-20T18:54:06;97709.22;;;9.46;82.96
62025;BME280;47978;49.118;12.146;2023-03-20T18:58:10;97712.03;;;9.41;83.02
62025;BME280;47978;49.118;12.146;2023-03-20T19:02:18;97727.53;;;9.37;83.08
62025;BME280;47978;49.118;12.146;2023-03-20T19:06:20;97721.00;;;9.28;83.14
62025;BME280;47978;49.118;12.146;2023-03-20T19:10:25;97717.81;;;9.15;83.73
62025;BME280;47978;49.118;12.146;2023-03-20T19:14:26;97711.06;;;9.03;84.16
62025;BME280;47978;49.118;12.146;2023-03-20T19:18:28;97705.53;;;9.03;83.76
62025;BME280;47978;49.118;12.146;2023-03-20T19:22:29;97703.19;;;8.91;84.06
62025;BME280;47978;49.118;12.146;2023-03-20T19:26:33;97709.41;;;8.72;84.49
62025;BME280;47978;49.118;12.146;2023-03-20T19:30:35;97707.78;;;8.66;84.25
62025;BME280;47978;49.118;12.146;2023-03-20T19:34:38;97709.63;;;8.37;85.05
62025;BME280;47978;49.118;12.146;2023-03-20T19:39:00;97721.22;;;8.33;85.08
62025;BME280;47978;49.118;12.146;2023-03-20T19:43:03;97714.97;;;8.23;85.25
62025;BME280;47978;49.118;12.146;2023-03-20T19:47:07;97712.81;;;8.15;85.07
62025;BME280;47978;49.118;12.146;2023-03-20T19:51:11;97718.94;;;8.01;85.16
62025;BME280;47978;49.118;12.146;2023-03-20T19:55:13;97719.31;;;7.84;85.32
62025;BME280;47978;49.118;12.146;2023-03-20T19:59:16;97723.44;;;7.87;85.17
62025;BME280;47978;49.118;12.146;2023-03-20T20:03:18;97722.16;;;7.64;85.68
62025;BME280;47978;49.118;12.146;2023-03-20T20:07:20;97720.00;;;7.46;86.25
62025;BME280;47978;49.118;12.146;2023-03-20T20:11:41;97717.31;;;7.35;86.37
62025;BME280;47978;49.118;12.146;2023-03-20T20:15:44;97729.44;;;7.29;86.68
62025;BME280;47978;49.118;12.146;2023-03-20T20:19:45;97733.31;;;7.08;87.25
62025;BME280;47978;49.118;12.146;2023-03-20T20:23:47;97732.81;;;7.01;87.82
62025;BME280;47978;49.118;12.146;2023-03-20T20:27:48;97730.31;;;7.04;87.65
62025;BME280;47978;49.118;12.146;2023-03-20T20:31:51;97720.69;;;7.02;87.60
62025;BME280;47978;49.118;12.146;2023-03-20T20:35:52;97720.13;;;6.99;88.03
62025;BME280;47978;49.118;12.146;2023-03-20T20:40:15;97718.50;;;7.04;88.00
62025;BME280;47978;49.118;12.146;2023-03-20T20:44:16;97723.94;;;7.14;87.64
62025;BME280;47978;49.118;12.146;2023-03-20T20:48:19;97719.06;;;7.01;88.35
62025;BME280;47978;49.118;12.146;2023-03-20T20:52:21;97716.25;;;7.16;88.33
62025;BME280;47978;49.118;12.146;2023-03-20T20:56:22;97708.00;;;7.16;88.08
62025;BME280;47978;49.118;12.146;2023-03-20T21:00:24;97712.97;;;7.14;88.17
62025;BME280;47978;49.118;12.146;2023-03-20T21:04:47;97709.13;;;7.10;88.13
62025;BME280;47978;49.118;12.146;2023-03-20T21:08:48;97709.94;;;7.00;88.34
62025;BME280;47978;49.118;12.146;2023-03-20T21:12:50;97712.69;;;7.05;88.57
62025;BME280;47978;49.118;12.146;2023-03-20T21:17:00;97719.34;;;6.89;89.63
62025;BME280;47978;49.118;12.146;2023-03-20T21:21:03;97713.28;;;6.87;89.87
62025;BME280;47978;49.118;12.146;2023-03-20T21:25:05;97717.69;;;6.98;89.47
62025;BME280;47978;49.118;12.146;2023-03-20T21:29:15;97713.00;;;6.98;89.19
62025;BME280;47978;49.118;12.146;2023-03-20T21:33:17;97716.31;;;7.01;89.00
62025;BME280;47978;49.118;12.146;2023-03-20T21:37:19;97708.88;;;6.96;89.14